Time;durP1;ratioP1;P1;durP2;ratioP2;P2;SDS_P1;SDS_P2;PMS_P1;PMS_P2;Temp;Humidity;BMP_temperature;BMP_pressure;BME280_temperature;BME280_humidity;BME280_pressure;Samples;Min_cycle;Max_cycle;Signal;HPM_P1;HPM_P2
2022/08/19 00:01:18;;;;;;;10.60;9.60;;;15.70;99.90;;;;;;5024084;28;20048;-88
2022/08/19 00:03:44;;;;;;;11.27;10.18;;;15.80;99.90;;;;;;5007863;28;20067;-88
2022/08/19 00:06:10;;;;;;;11.05;9.95;;;15.70;99.90;;;;;;5009138;28;20049;-87
2022/08/19 00:08:36;;;;;;;10.80;9.70;;;15.80;99.90;;;;;;4995683;28;20052;-88
2022/08/19 00:11:03;;;;;;;11.68;9.98;;;15.80;99.90;;;;;;5024185;28;20128;-88
2022/08/19 00:13:29;;;;;;;11.05;9.90;;;15.70;99.90;;;;;;5040511;28;20471;-88
2022/08/19 00:15:56;;;;;;;10.40;9.32;;;15.70;99.90;;;;;;5004837;28;20807;-87
2022/08/19 00:18:22;;;;;;;10.38;9.38;;;15.70;99.90;;;;;;4994619;28;20091;-89
2022/08/19 08:10:07;;;;;;;12.27;11.18;;;26.50;99.90;;;;;;4974930;28;20044;-87
2022/08/19 08:12:42;;;;;;;10.35;9.45;;;26.70;99.90;;;;;;5023849;28;20052;-86
2022/08/19 08:15:18;;;;;;;13.93;12.63;;;26.90;99.90;;;;;;4993194;28;21332;-87
2022/08/19 08:17:45;;;;;;;14.63;13.32;;;27.10;99.90;;;;;;5035752;28;20240;-86
2022/08/19 08:20:13;;;;;;;11.93;10.70;;;27.40;99.90;;;;;;5009477;28;20044;-86
2022/08/19 08:25:29;;;;;;;11.20;10.20;;;27.80;99.90;;;;;;5021365;28;20049;-87
2022/08/19 08:27:56;;;;;;;14.05;12.70;;;27.90;99.90;;;;;;4984939;28;20871;-87
2022/08/19 08:30:34;;;;;;;12.23;11.10;;;28.10;99.90;;;;;;4978450;28;20044;-87
2022/08/19 08:33:00;;;;;;;12.63;11.48;;;28.10;99.90;;;;;;5018455;28;20053;-87
2022/08/19 08:35:27;;;;;;;13.63;12.30;;;28.20;99.90;;;;;;4981213;28;20144;-85
2022/08/19 08:37:55;;;;;;;12.30;11.20;;;27.90;99.90;;;;;;4977128;28;20052;-86
2022/08/19 08:40:38;;;;;;;13.20;11.90;;;27.80;99.90;;;;;;5013535;28;20048;-85
2022/08/19 08:43:33;;;;;;;13.38;12.10;;;28.00;99.90;;;;;;4999372;28;20343;-85
2022/08/19 08:46:05;;;;;;;12.63;11.43;;;27.90;99.90;;;;;;5033207;28;20587;-85
2022/08/19 08:49:07;;;;;;;14.20;12.80;;;28.00;99.90;;;;;;5022762;28;20084;-85
2022/08/19 08:51:47;;;;;;;12.10;10.90;;;28.70;99.90;;;;;;4987577;28;20045;-86
2022/08/19 08:54:19;;;;;;;12.98;11.88;;;28.80;99.90;;;;;;5031870;28;20122;-86
2022/08/19 08:56:53;;;;;;;12.25;11.13;;;28.80;99.90;;;;;;5023465;28;20400;-86
2022/08/19 08:59:41;;;;;;;12.13;11.02;;;28.80;99.90;;;;;;5013318;28;20408;-85
2022/08/19 09:02:09;;;;;;;13.32;12.07;;;28.90;99.90;;;;;;4998414;28;20032;-85
2022/08/19 09:04:37;;;;;;;15.00;13.73;;;28.80;99.90;;;;;;4982381;28;20041;-85
2022/08/19 09:07:21;;;;;;;14.98;13.77;;;29.00;99.90;;;;;;5010568;28;20147;-86
2022/08/19 09:09:50;;;;;;;15.02;13.75;;;28.50;99.90;;;;;;5026825;28;20041;-86
2022/08/19 09:12:59;;;;;;;14.43;13.10;;;29.00;99.90;;;;;;4998269;28;20040;-86
2022/08/19 09:15:34;;;;;;;14.70;13.40;;;29.30;98.50;;;;;;5014775;28;20127;-85
2022/08/19 09:18:06;;;;;;;14.80;13.40;;;29.50;99.10;;;;;;4997901;28;20045;-86
2022/08/19 09:20:32;;;;;;;13.75;12.55;;;29.70;97.70;;;;;;5024633;28;20055;-88
2022/08/19 09:22:59;;;;;;;15.48;13.98;;;30.20;96.20;;;;;;5012745;28;20168;-86
2022/08/19 09:25:26;;;;;;;15.20;13.73;;;30.10;96.30;;;;;;5000018;28;20059;-87
2022/08/19 09:27:55;;;;;;;15.18;13.88;;;30.20;95.40;;;;;;4998461;28;20040;-86
2022/08/19 09:30:34;;;;;;;16.97;15.50;;;30.40;94.80;;;;;;5014434;28;20129;-86
2022/08/19 09:33:00;;;;;;;19.23;17.65;;;30.10;91.40;;;;;;5008152;28;20345;-87
2022/08/19 09:35:29;;;;;;;16.27;14.73;;;30.20;94.80;;;;;;5014898;28;20052;-87
2022/08/19 09:37:57;;;;;;;14.30;13.00;;;30.60;91.80;;;;;;4989857;28;20033;-86
2022/08/19 09:40:25;;;;;;;12.20;11.20;;;30.90;85.30;;;;;;5014761;28;20048;-85
2022/08/19 09:42:52;;;;;;;14.50;13.40;;;31.00;85.00;;;;;;4998759;28;20037;-86
2022/08/19 09:45:21;;;;;;;13.35;12.15;;;31.30;83.10;;;;;;5000540;28;20078;-85
2022/08/19 09:47:50;;;;;;;12.77;11.77;;;30.90;84.50;;;;;;5015482;28;20082;-86
2022/08/19 09:50:17;;;;;;;13.10;11.90;;;30.60;85.90;;;;;;4999215;28;20086;-86
2022/08/19 09:52:47;;;;;;;12.23;11.05;;;30.70;88.90;;;;;;5009596;28;20045;-85
2022/08/19 09:55:13;;;;;;;13.23;12.07;;;30.20;90.80;;;;;;5012452;28;20068;-86
2022/08/19 09:57:40;;;;;;;14.23;12.90;;;30.30;92.40;;;;;;4978921;28;20382;-86
2022/08/19 10:00:09;;;;;;;12.55;11.43;;;30.70;90.10;;;;;;4999134;28;20439;-85
2022/08/19 10:02:35;;;;;;;13.18;11.98;;;30.90;81.90;;;;;;5012772;28;21139;-85
2022/08/19 10:07:46;;;;;;;9.90;9.10;;;30.80;85.00;;;;;;5009874;28;20048;-85
2022/08/19 10:10:12;;;;;;;12.10;11.07;;;31.00;85.00;;;;;;5001397;28;20055;-85
2022/08/19 10:12:39;;;;;;;12.27;11.18;;;31.60;76.90;;;;;;5015676;28;20450;-86
2022/08/19 10:15:06;;;;;;;11.52;10.43;;;31.60;73.80;;;;;;4995223;28;20048;-85
2022/08/19 10:17:34;;;;;;;11.63;10.52;;;31.50;72.90;;;;;;5031827;28;20679;-85
2022/08/19 10:20:04;;;;;;;10.43;9.55;;;31.70;71.00;;;;;;5002087;28;20061;-85
2022/08/19 10:22:30;;;;;;;11.23;10.32;;;31.80;72.40;;;;;;4997912;28;20056;-85
2022/08/19 10:24:56;;;;;;;10.23;9.30;;;31.80;68.00;;;;;;5014518;28;20044;-85
2022/08/19 10:27:23;;;;;;;14.20;8.10;;;31.40;67.50;;;;;;5025895;28;20052;-85
2022/08/19 10:29:49;;;;;;;9.43;8.55;;;31.40;68.30;;;;;;4997294;28;20036;-85
2022/08/19 10:32:15;;;;;;;9.90;9.00;;;31.80;66.40;;;;;;5013343;28;20123;-85
2022/08/19 10:34:41;;;;;;;9.73;8.45;;;32.00;64.90;;;;;;4993326;28;20040;-85
2022/08/19 10:37:07;;;;;;;9.23;8.43;;;32.10;63.70;;;;;;4975524;28;20590;-85
2022/08/19 10:39:36;;;;;;;9.63;8.73;;;31.90;64.70;;;;;;5027689;28;20054;-85
2022/08/19 10:42:07;;;;;;;9.25;8.43;;;32.30;64.60;;;;;;4993801;28;20079;-86
2022/08/19 10:44:35;;;;;;;9.23;7.38;;;32.10;65.60;;;;;;5024604;28;20570;-86
2022/08/19 10:47:02;;;;;;;6.10;5.47;;;32.40;64.50;;;;;;4997635;28;20483;-85
2022/08/19 10:49:28;;;;;;;6.72;6.10;;;32.70;60.20;;;;;;4999028;28;20047;-85
2022/08/19 10:57:31;;;;;;;6.05;5.40;;;33.10;58.00;;;;;;5035082;28;20040;-85
2022/08/19 10:59:57;;;;;;;5.53;4.97;;;33.70;57.70;;;;;;5038127;28;20052;-85
2022/08/19 11:02:23;;;;;;;6.72;4.53;;;33.80;54.10;;;;;;4999777;28;20048;-85
2022/08/19 11:04:51;;;;;;;5.75;5.20;;;32.80;54.20;;;;;;4980815;28;20399;-86
2022/08/19 11:07:17;;;;;;;5.63;5.00;;;32.80;53.70;;;;;;4992027;28;20139;-85
2022/08/19 11:09:43;;;;;;;7.45;5.03;;;32.60;53.60;;;;;;4997689;28;20607;-85
2022/08/19 11:12:13;;;;;;;7.45;6.75;;;32.60;53.90;;;;;;4989057;28;20057;-86
2022/08/19 11:14:40;;;;;;;6.32;5.70;;;33.10;53.80;;;;;;5010275;28;20048;-85
2022/08/19 11:17:06;;;;;;;6.13;5.53;;;33.40;54.50;;;;;;5026046;28;20526;-84
2022/08/19 11:19:33;;;;;;;7.05;5.97;;;33.70;52.80;;;;;;4991837;28;20133;-85
2022/08/19 11:22:01;;;;;;;8.27;7.47;;;33.00;53.80;;;;;;4994826;28;20438;-85
2022/08/19 11:24:28;;;;;;;7.78;6.55;;;32.50;55.70;;;;;;4990846;28;20396;-86
2022/08/19 11:26:59;;;;;;;6.82;6.10;;;32.30;56.00;;;;;;4990348;28;20500;-85
2022/08/19 11:29:27;;;;;;;9.38;8.30;;;32.10;56.20;;;;;;4990978;28;20508;-84
2022/08/19 11:31:54;;;;;;;8.75;7.47;;;31.70;57.50;;;;;;4993094;28;20040;-85
2022/08/19 11:34:28;;;;;;;10.30;6.78;;;31.30;60.30;;;;;;5005504;28;20040;-84
2022/08/19 11:36:58;;;;;;;8.30;6.10;;;31.30;60.90;;;;;;5022727;28;20060;-85
2022/08/19 11:39:27;;;;;;;6.38;5.78;;;31.50;60.30;;;;;;5006300;28;20078;-84
2022/08/19 11:41:53;;;;;;;6.55;5.35;;;31.80;58.30;;;;;;4985588;28;20056;-85
2022/08/19 11:44:19;;;;;;;6.68;5.47;;;32.10;57.20;;;;;;4989966;28;20041;-85
2022/08/19 11:46:46;;;;;;;6.82;6.13;;;32.10;56.60;;;;;;4997868;28;20497;-84
2022/08/19 11:49:15;;;;;;;6.00;4.50;;;32.80;55.90;;;;;;5013824;28;20048;-85
2022/08/19 11:51:42;;;;;;;7.47;6.78;;;32.90;54.60;;;;;;4993402;28;20040;-85
2022/08/19 11:54:09;;;;;;;7.05;6.35;;;32.90;54.60;;;;;;5025263;28;20041;-84
2022/08/19 11:56:37;;;;;;;9.93;7.95;;;33.20;54.90;;;;;;4988491;28;20044;-85
2022/08/19 11:59:03;;;;;;;8.60;7.43;;;33.10;54.60;;;;;;4993530;28;20051;-85
2022/08/19 12:01:31;;;;;;;8.43;7.43;;;33.20;54.10;;;;;;4972454;28;20055;-85
2022/08/19 12:03:57;;;;;;;10.75;8.20;;;32.80;54.90;;;;;;4994939;28;20543;-86
2022/08/19 12:06:31;;;;;;;8.43;7.38;;;33.00;55.80;;;;;;5006138;28;20057;-85
2022/08/19 12:09:05;;;;;;;8.15;7.35;;;33.00;54.90;;;;;;5007383;28;20428;-85
2022/08/19 12:11:32;;;;;;;8.20;6.82;;;33.00;53.00;;;;;;5024691;28;20559;-85
2022/08/19 12:13:58;;;;;;;8.43;6.95;;;33.10;54.00;;;;;;4979214;28;20584;-85
2022/08/19 12:16:27;;;;;;;8.80;7.90;;;32.70;54.50;;;;;;4984729;28;20054;-85
2022/08/19 12:18:55;;;;;;;6.82;6.13;;;33.20;54.90;;;;;;5005362;28;20405;-85
2022/08/19 12:21:28;;;;;;;7.63;6.93;;;33.00;55.00;;;;;;5009507;28;20080;-85
2022/08/19 12:23:56;;;;;;;7.57;6.88;;;32.70;54.10;;;;;;4993668;28;20048;-85
2022/08/19 12:26:24;;;;;;;6.82;6.05;;;32.50;53.90;;;;;;5014425;28;20055;-85
2022/08/19 12:28:50;;;;;;;6.22;5.63;;;32.40;54.50;;;;;;5024871;28;20295;-85
2022/08/19 12:31:17;;;;;;;6.82;4.90;;;32.00;54.40;;;;;;4980202;28;20045;-85
2022/08/19 12:33:43;;;;;;;5.15;4.65;;;32.10;54.50;;;;;;4985240;28;20076;-85
2022/08/19 12:36:13;;;;;;;6.18;5.20;;;31.70;54.60;;;;;;5007158;28;20047;-86
2022/08/19 12:38:41;;;;;;;5.97;4.47;;;31.70;53.60;;;;;;5034622;28;20440;-86
2022/08/19 12:41:11;;;;;;;11.90;10.65;;;31.60;53.30;;;;;;5018329;28;20604;-85
2022/08/19 12:43:38;;;;;;;5.05;4.15;;;31.70;53.50;;;;;;4995590;28;20043;-85
2022/08/19 12:46:07;;;;;;;7.45;6.57;;;31.60;52.20;;;;;;4994384;28;20543;-86
2022/08/19 12:48:34;;;;;;;4.78;3.83;;;31.60;51.70;;;;;;4996321;28;20087;-86
2022/08/19 12:52:07;;;;;;;6.22;5.60;;;31.90;51.50;;;;;;4969264;28;20382;-85
2022/08/19 12:54:34;;;;;;;5.00;4.03;;;31.90;50.50;;;;;;5009863;28;20040;-87
2022/08/19 12:57:05;;;;;;;5.70;3.95;;;32.20;51.60;;;;;;5007174;28;20099;-87
2022/08/19 12:59:32;;;;;;;4.38;3.65;;;32.10;51.30;;;;;;4997071;28;20053;-86
2022/08/19 13:01:58;;;;;;;5.05;4.55;;;32.20;50.60;;;;;;4995814;28;20098;-86
2022/08/19 13:04:24;;;;;;;4.68;3.55;;;32.80;50.90;;;;;;4975817;28;20055;-88
2022/08/19 13:06:50;;;;;;;4.50;3.65;;;33.30;49.70;;;;;;4985710;28;20092;-89
2022/08/19 13:09:17;;;;;;;5.18;3.22;;;33.60;48.50;;;;;;4978444;28;20041;-86
2022/08/19 13:11:44;;;;;;;4.03;2.90;;;33.90;48.30;;;;;;5000292;28;20040;-87
2022/08/19 13:14:11;;;;;;;4.75;3.78;;;33.80;47.10;;;;;;4993937;28;20076;-86
2022/08/19 13:16:37;;;;;;;3.38;2.65;;;33.30;48.80;;;;;;5008767;28;20044;-88
2022/08/19 13:19:05;;;;;;;4.38;3.58;;;32.60;47.00;;;;;;4988425;28;20555;-86
2022/08/19 13:21:31;;;;;;;5.97;5.30;;;32.30;48.70;;;;;;4960435;28;20053;-85
2022/08/19 13:23:58;;;;;;;5.45;4.85;;;32.20;49.70;;;;;;4991095;28;20083;-86
2022/08/19 13:26:24;;;;;;;6.22;4.32;;;32.10;50.80;;;;;;4975525;28;20544;-86
2022/08/19 13:34:34;;;;;;;4.30;3.90;;;32.10;52.00;;;;;;5000196;28;20044;-86
2022/08/19 13:37:05;;;;;;;4.63;3.80;;;32.30;48.90;;;;;;4974109;28;20044;-86
2022/08/19 13:39:35;;;;;;;15.85;14.38;;;32.70;50.80;;;;;;5010225;28;20545;-86
2022/08/19 13:42:02;;;;;;;17.65;16.08;;;32.60;51.40;;;;;;4992912;28;20045;-87
2022/08/19 13:44:29;;;;;;;14.88;13.60;;;33.10;52.10;;;;;;5005291;28;20049;-87
2022/08/19 13:47:07;;;;;;;11.93;10.73;;;33.30;51.30;;;;;;5003033;28;20616;-86
2022/08/19 13:49:35;;;;;;;7.72;6.10;;;33.10;51.40;;;;;;5009294;28;20497;-86
2022/08/19 13:52:02;;;;;;;7.22;6.47;;;32.80;50.40;;;;;;5024995;28;20045;-88
2022/08/19 13:54:28;;;;;;;7.20;6.40;;;32.60;51.90;;;;;;4978158;28;20076;-86
2022/08/19 13:56:55;;;;;;;5.72;4.68;;;32.50;52.80;;;;;;4990081;28;20056;-86
2022/08/19 13:59:21;;;;;;;8.23;7.30;;;32.90;51.00;;;;;;4979227;28;20046;-86
2022/08/19 14:01:48;;;;;;;20.60;18.60;;;32.90;50.80;;;;;;4990860;28;20049;-87
2022/08/19 14:04:17;;;;;;;29.75;27.13;;;32.40;52.50;;;;;;4996552;28;20049;-87
2022/08/19 14:06:47;;;;;;;14.68;13.27;;;32.30;53.30;;;;;;4991472;28;20052;-88
2022/08/19 14:09:13;;;;;;;12.88;11.60;;;31.50;55.10;;;;;;4979588;28;20484;-87
2022/08/19 14:11:40;;;;;;;28.33;25.77;;;30.70;56.60;;;;;;4991101;28;20037;-87
2022/08/19 14:14:06;;;;;;;16.23;14.65;;;30.10;60.80;;;;;;4959232;28;20045;-87
2022/08/19 14:16:33;;;;;;;18.20;16.50;;;29.70;64.10;;;;;;4994008;28;20096;-86
2022/08/19 14:18:59;;;;;;;15.02;13.50;;;29.40;68.70;;;;;;4976274;28;20044;-86
2022/08/19 14:21:26;;;;;;;14.50;13.20;;;29.00;74.70;;;;;;4976533;28;20045;-87
2022/08/19 14:23:52;;;;;;;17.15;15.05;;;28.90;82.20;;;;;;4993368;28;20053;-87
2022/08/19 14:26:20;;;;;;;16.83;15.32;;;28.70;90.00;;;;;;4989322;28;20080;-87
2022/08/19 14:28:47;;;;;;;18.45;16.52;;;28.90;93.80;;;;;;4997880;28;20455;-88
2022/08/19 14:31:18;;;;;;;18.80;17.02;;;29.00;93.50;;;;;;4977838;28;20041;-86
2022/08/19 14:33:47;;;;;;;16.48;14.77;;;28.90;95.70;;;;;;5029379;28;20059;-85
2022/08/19 14:36:13;;;;;;;14.90;13.45;;;28.50;94.50;;;;;;4997739;28;20052;-86
2022/08/19 14:38:41;;;;;;;14.52;13.02;;;28.40;94.20;;;;;;4994843;28;20124;-86
2022/08/19 14:41:20;;;;;;;15.07;13.63;;;28.10;95.60;;;;;;4996543;28;20457;-86
2022/08/19 14:43:49;;;;;;;16.20;14.50;;;27.90;98.10;;;;;;4999721;28;20072;-86
2022/08/19 14:46:19;;;;;;;13.65;12.25;;;27.90;97.50;;;;;;5001178;28;20123;-86
2022/08/19 14:48:46;;;;;;;13.10;11.77;;;27.80;97.30;;;;;;4995045;28;20388;-86
2022/08/19 14:51:12;;;;;;;12.93;11.55;;;27.90;97.80;;;;;;4996846;28;20041;-85
2022/08/19 14:53:39;;;;;;;14.75;13.25;;;28.30;98.20;;;;;;4979254;28;20051;-86
2022/08/19 14:56:14;;;;;;;15.65;14.02;;;28.90;96.60;;;;;;4954151;28;20061;-87
2022/08/19 14:58:42;;;;;;;14.40;13.15;;;29.30;95.30;;;;;;5003152;28;20080;-86
2022/08/19 15:01:09;;;;;;;15.43;13.80;;;28.80;96.50;;;;;;5016889;28;20048;-87
2022/08/19 15:03:36;;;;;;;19.33;17.05;;;28.70;97.30;;;;;;4978517;28;20060;-86
2022/08/19 15:06:04;;;;;;;19.92;17.85;;;28.20;99.90;;;;;;4984327;28;20092;-87
2022/08/19 15:08:35;;;;;;;79.70;72.78;;;28.20;99.90;;;;;;4998062;28;20409;-86
2022/08/19 15:11:01;;;;;;;18.58;16.75;;;28.20;99.90;;;;;;5010735;28;20045;-86
2022/08/19 15:13:29;;;;;;;23.45;21.02;;;28.00;99.90;;;;;;4962806;28;20042;-87
2022/08/19 15:15:56;;;;;;;16.00;13.50;;;27.80;99.90;;;;;;4999001;28;20048;-87
2022/08/19 15:18:23;;;;;;;17.58;14.25;;;27.80;99.90;;;;;;5000060;28;20505;-86
2022/08/19 15:20:50;;;;;;;18.23;16.33;;;27.60;99.90;;;;;;4969328;28;20400;-86
2022/08/19 15:23:19;;;;;;;21.33;19.30;;;27.30;99.90;;;;;;4993230;28;20045;-85
2022/08/19 15:25:46;;;;;;;18.10;16.08;;;27.00;99.90;;;;;;5000803;28;20107;-86
2022/08/19 15:28:12;;;;;;;19.55;16.27;;;26.90;99.90;;;;;;4987402;28;20047;-85
2022/08/19 15:30:39;;;;;;;18.60;16.70;;;26.70;99.90;;;;;;5012312;28;20489;-86
2022/08/19 15:33:06;;;;;;;19.40;17.45;;;26.60;99.90;;;;;;5038748;28;20175;-86
2022/08/19 15:35:32;;;;;;;17.75;16.05;;;26.50;99.90;;;;;;4980585;28;20048;-86
2022/08/19 15:37:59;;;;;;;20.25;17.90;;;26.40;99.90;;;;;;4994851;28;20045;-85
2022/08/19 15:40:26;;;;;;;17.35;15.40;;;26.40;99.90;;;;;;4997382;28;20037;-86
2022/08/19 15:42:54;;;;;;;14.68;13.23;;;26.50;99.90;;;;;;4989873;28;20037;-86
2022/08/19 15:45:21;;;;;;;16.13;14.43;;;26.60;99.90;;;;;;4977428;28;20045;-86
2022/08/19 15:47:48;;;;;;;16.17;14.43;;;26.60;99.90;;;;;;5011265;28;20056;-86
2022/08/19 15:50:26;;;;;;;22.88;20.55;;;26.80;99.90;;;;;;4978321;28;20053;-86
2022/08/19 15:53:24;;;;;;;35.20;31.83;;;26.80;99.90;;;;;;5007263;28;20041;-87
2022/08/19 15:56:07;;;;;;;15.15;12.90;;;26.80;99.90;;;;;;4997441;28;20084;-86
2022/08/19 16:06:55;;;;;;;10.90;9.80;;;26.30;99.90;;;;;;5009743;28;20056;-86
2022/08/19 16:09:24;;;;;;;12.50;9.25;;;26.00;99.90;;;;;;4975611;28;20519;-86
2022/08/19 16:11:51;;;;;;;12.32;8.85;;;25.90;99.90;;;;;;4993973;28;20045;-87
2022/08/19 16:14:18;;;;;;;11.73;9.52;;;25.90;99.90;;;;;;4962454;28;20036;-86
2022/08/19 16:16:46;;;;;;;11.23;9.68;;;25.80;99.90;;;;;;4974364;28;20083;-86
2022/08/19 16:19:15;;;;;;;13.45;10.57;;;25.70;99.90;;;;;;4991550;28;20121;-85
2022/08/19 16:21:51;;;;;;;14.00;11.25;;;25.70;99.90;;;;;;5007686;28;20045;-86
2022/08/19 16:24:20;;;;;;;13.50;11.98;;;25.50;99.90;;;;;;4972767;28;20041;-85
2022/08/19 16:26:48;;;;;;;13.88;11.50;;;25.30;99.90;;;;;;4992238;28;20088;-85
2022/08/19 16:29:18;;;;;;;13.25;11.27;;;25.30;99.90;;;;;;4991443;28;20266;-85
2022/08/19 16:31:45;;;;;;;13.27;11.98;;;25.20;99.90;;;;;;4964996;28;20337;-85
2022/08/19 16:34:12;;;;;;;16.98;14.18;;;25.10;99.90;;;;;;4999808;28;20978;-86
2022/08/19 16:36:40;;;;;;;14.88;13.40;;;25.20;99.90;;;;;;4973758;28;20040;-85
2022/08/19 16:39:09;;;;;;;15.27;13.45;;;25.10;99.90;;;;;;4986976;28;20052;-86
2022/08/19 16:41:36;;;;;;;13.60;12.32;;;25.10;99.90;;;;;;4975738;28;20056;-85
2022/08/19 16:44:04;;;;;;;20.70;18.60;;;25.10;99.90;;;;;;4998496;28;20191;-85
2022/08/19 16:46:33;;;;;;;13.18;11.75;;;25.10;99.90;;;;;;4981850;28;20083;-85
2022/08/19 16:48:59;;;;;;;15.35;12.52;;;25.00;99.90;;;;;;4998023;28;20413;-84
2022/08/19 16:51:25;;;;;;;17.10;13.70;;;24.90;99.90;;;;;;4953897;28;20053;-85
2022/08/19 16:53:52;;;;;;;13.50;11.93;;;24.90;99.90;;;;;;4956681;28;20072;-84
2022/08/19 16:56:20;;;;;;;14.88;12.43;;;24.90;99.90;;;;;;4961792;28;20036;-84
2022/08/19 16:58:46;;;;;;;14.88;12.38;;;24.80;99.90;;;;;;4979052;28;20124;-84
2022/08/19 17:01:16;;;;;;;16.88;12.95;;;24.90;99.90;;;;;;4979700;28;20045;-84
2022/08/19 17:03:43;;;;;;;15.68;12.65;;;24.80;99.90;;;;;;4978034;28;20088;-84
2022/08/19 17:06:15;;;;;;;14.90;13.40;;;24.80;99.90;;;;;;4980931;28;20583;-84
2022/08/19 17:08:42;;;;;;;15.25;13.65;;;24.80;99.90;;;;;;4996301;28;20060;-84
2022/08/19 17:11:08;;;;;;;17.15;14.40;;;24.70;99.90;;;;;;4992836;28;20046;-84
2022/08/19 17:13:35;;;;;;;17.58;15.57;;;24.60;99.90;;;;;;4986300;28;20277;-84
2022/08/19 17:16:01;;;;;;;15.60;14.00;;;24.50;99.90;;;;;;5002034;28;20527;-84
2022/08/19 17:18:30;;;;;;;19.30;15.60;;;24.40;99.90;;;;;;4962277;28;20051;-85
2022/08/19 17:20:56;;;;;;;16.88;15.13;;;24.30;99.90;;;;;;4975629;28;20045;-85
2022/08/19 17:23:22;;;;;;;18.90;16.95;;;24.20;99.90;;;;;;4961116;28;20045;-85
2022/08/19 17:25:50;;;;;;;19.63;17.73;;;24.10;99.90;;;;;;4936692;28;20077;-85
2022/08/19 17:28:19;;;;;;;21.42;19.20;;;24.00;99.90;;;;;;4993251;28;20107;-85
2022/08/19 17:30:46;;;;;;;23.55;21.13;;;23.90;99.90;;;;;;4988908;28;20041;-85
2022/08/19 17:33:12;;;;;;;23.35;21.02;;;23.70;99.90;;;;;;4977428;28;20384;-84
2022/08/19 17:35:42;;;;;;;23.52;21.13;;;23.40;99.90;;;;;;4990277;28;20482;-83
2022/08/19 17:38:12;;;;;;;24.13;21.65;;;23.10;99.90;;;;;;4978882;28;20037;-84
2022/08/19 17:40:41;;;;;;;24.48;22.25;;;23.00;99.90;;;;;;4994664;28;20053;-84
2022/08/19 17:43:09;;;;;;;26.00;23.52;;;22.90;99.90;;;;;;5008097;28;20156;-84
2022/08/19 17:45:36;;;;;;;27.40;24.67;;;22.80;99.90;;;;;;4978169;28;20049;-84
2022/08/19 17:48:03;;;;;;;28.33;25.55;;;22.60;99.90;;;;;;4962574;28;20049;-84
2022/08/19 17:50:30;;;;;;;30.58;27.83;;;22.60;99.90;;;;;;5026703;28;20058;-85
2022/08/19 17:52:57;;;;;;;26.75;24.25;;;22.60;99.90;;;;;;4981526;28;20041;-85
2022/08/19 17:55:23;;;;;;;31.15;28.27;;;22.60;99.90;;;;;;4978997;28;20037;-85
2022/08/19 17:57:54;;;;;;;29.65;26.92;;;22.50;99.90;;;;;;4967524;28;20037;-84
2022/08/19 18:00:21;;;;;;;34.10;31.00;;;22.40;99.90;;;;;;5013957;28;20047;-85
2022/08/19 18:02:50;;;;;;;34.78;31.42;;;22.40;99.90;;;;;;4983104;28;20049;-85
2022/08/19 18:05:18;;;;;;;33.40;30.35;;;22.30;99.90;;;;;;5001201;28;20045;-84
2022/08/19 18:07:45;;;;;;;31.70;28.90;;;22.30;99.90;;;;;;5003998;28;20052;-85
2022/08/19 18:10:12;;;;;;;31.88;28.88;;;22.20;99.90;;;;;;4997871;28;20037;-85
2022/08/19 18:12:38;;;;;;;28.02;25.42;;;22.20;99.90;;;;;;5020479;28;20063;-84
2022/08/19 18:15:07;;;;;;;29.05;26.55;;;22.20;99.90;;;;;;5022284;28;20044;-84
2022/08/19 18:17:35;;;;;;;28.50;25.48;;;22.10;99.90;;;;;;5009006;28;20484;-85
2022/08/19 18:20:07;;;;;;;26.98;24.77;;;22.00;99.90;;;;;;4995253;28;20052;-85
2022/08/19 18:22:43;;;;;;;26.98;24.45;;;22.00;99.90;;;;;;5010685;28;20036;-84
2022/08/19 18:25:17;;;;;;;31.15;28.20;;;22.00;99.90;;;;;;5001084;28;20385;-85
2022/08/19 18:27:43;;;;;;;28.15;25.75;;;21.90;99.90;;;;;;5001840;28;20164;-84
2022/08/19 18:30:10;;;;;;;28.27;25.58;;;21.70;99.90;;;;;;4984515;28;20076;-85
2022/08/19 18:32:38;;;;;;;28.88;26.02;;;21.60;99.90;;;;;;4985596;28;20070;-85
2022/08/19 18:35:10;;;;;;;28.40;25.65;;;21.50;99.90;;;;;;5011026;28;20326;-84
2022/08/19 18:37:43;;;;;;;26.67;24.38;;;21.50;99.90;;;;;;4999775;28;20064;-85
2022/08/19 18:51:11;;;;;;;21.88;19.77;;;21.10;99.90;;;;;;5015000;28;20040;-85
2022/08/19 18:53:39;;;;;;;22.77;20.55;;;21.20;99.90;;;;;;5001905;28;20099;-84
2022/08/19 18:56:08;;;;;;;25.05;22.52;;;21.20;99.90;;;;;;5003510;28;20040;-84
2022/08/19 18:58:37;;;;;;;21.85;19.95;;;21.20;99.90;;;;;;5024277;28;20048;-84
2022/08/19 19:01:13;;;;;;;21.90;20.00;;;21.10;99.90;;;;;;5032225;28;20044;-84
2022/08/19 19:03:44;;;;;;;22.65;20.45;;;21.10;99.90;;;;;;5014931;28;20213;-84
2022/08/19 19:06:12;;;;;;;;;;;21.00;99.90;;;;;;4989345;28;20528;-84
2022/08/19 19:08:39;;;;;;;17.48;13.40;;;21.00;99.90;;;;;;4996505;28;19928;-85
2022/08/19 19:11:07;;;;;;;12.07;10.75;;;20.90;99.90;;;;;;4960030;28;20056;-84
2022/08/19 19:13:35;;;;;;;12.00;10.80;;;20.90;99.90;;;;;;5000017;28;20484;-84
2022/08/19 19:16:01;;;;;;;11.90;9.68;;;20.90;99.90;;;;;;5024001;28;20045;-84
2022/08/19 19:18:28;;;;;;;14.55;8.90;;;20.90;99.90;;;;;;4962690;28;20052;-83
2022/08/19 19:20:58;;;;;;;13.90;11.45;;;20.70;99.90;;;;;;4990760;28;20076;-83
2022/08/19 19:23:27;;;;;;;22.80;13.50;;;20.60;99.90;;;;;;4980689;28;20603;-83
2022/08/19 19:25:53;;;;;;;18.27;16.48;;;20.50;99.90;;;;;;4978353;28;20072;-83
2022/08/19 19:28:23;;;;;;;19.73;17.73;;;20.40;99.90;;;;;;4993701;28;20053;-83
2022/08/19 19:30:52;;;;;;;21.50;18.52;;;20.40;99.90;;;;;;4989584;28;20083;-83
2022/08/19 19:33:18;;;;;;;14.77;13.38;;;20.40;99.90;;;;;;4974298;28;20044;-83
2022/08/19 19:35:46;;;;;;;13.85;12.50;;;20.40;99.90;;;;;;4990096;28;20049;-83
2022/08/19 19:38:12;;;;;;;12.23;11.00;;;20.30;99.90;;;;;;4982882;28;20505;-83
2022/08/19 19:40:38;;;;;;;13.32;11.35;;;20.40;99.90;;;;;;4962627;28;20049;-84
2022/08/19 19:43:05;;;;;;;13.32;12.02;;;20.40;99.90;;;;;;4975897;28;20059;-83
2022/08/19 19:45:32;;;;;;;13.52;12.20;;;20.30;99.90;;;;;;4961259;28;20110;-83
2022/08/19 19:47:59;;;;;;;14.52;13.13;;;20.30;99.90;;;;;;4965835;28;20151;-84
2022/08/19 19:50:28;;;;;;;14.85;13.35;;;20.30;99.90;;;;;;4994107;28;20056;-84
2022/08/19 19:52:55;;;;;;;14.05;12.65;;;20.30;99.90;;;;;;4975559;28;20045;-83
2022/08/19 19:55:25;;;;;;;13.75;12.35;;;20.20;99.90;;;;;;4995042;28;20136;-83
2022/08/19 19:57:56;;;;;;;14.45;12.95;;;20.20;99.90;;;;;;5025170;28;20075;-85
2022/08/19 20:00:23;;;;;;;15.25;13.85;;;20.20;99.90;;;;;;5006221;28;20040;-84
2022/08/19 20:02:52;;;;;;;17.95;16.15;;;20.30;99.90;;;;;;4992003;28;20424;-84
2022/08/19 20:05:22;;;;;;;14.38;12.98;;;20.20;99.90;;;;;;4981442;28;20198;-84
2022/08/19 20:10:36;;;;;;;16.25;14.60;;;20.20;99.90;;;;;;5015639;28;20127;-84
2022/08/19 20:13:03;;;;;;;16.55;14.88;;;20.20;99.90;;;;;;5003223;28;20076;-84
2022/08/19 20:15:30;;;;;;;14.90;13.45;;;20.20;99.90;;;;;;5011925;28;20377;-84
2022/08/19 20:17:58;;;;;;;16.38;14.68;;;20.20;99.90;;;;;;4986273;28;20038;-83
2022/08/19 20:20:24;;;;;;;16.60;15.00;;;20.20;99.90;;;;;;5031435;28;20048;-85
2022/08/19 20:22:51;;;;;;;14.70;13.25;;;20.10;99.90;;;;;;5010727;28;20924;-84
2022/08/19 20:25:19;;;;;;;16.17;14.55;;;20.10;99.90;;;;;;5014035;28;20045;-84
2022/08/19 20:27:46;;;;;;;16.48;14.10;;;20.10;99.90;;;;;;4996100;28;20407;-84
2022/08/19 20:30:15;;;;;;;19.63;17.48;;;20.10;99.90;;;;;;4996555;28;20055;-85
2022/08/19 20:32:42;;;;;;;15.30;13.75;;;20.20;99.90;;;;;;5016298;28;20126;-84
2022/08/19 20:35:09;;;;;;;17.48;15.77;;;20.20;99.90;;;;;;4997339;28;20051;-84
2022/08/19 20:37:36;;;;;;;17.92;16.13;;;20.20;99.90;;;;;;4981098;28;20044;-84
2022/08/19 20:40:05;;;;;;;18.77;16.77;;;20.30;99.90;;;;;;5012048;28;20061;-84
2022/08/19 20:42:32;;;;;;;13.32;11.93;;;20.20;99.90;;;;;;5023413;28;20044;-84
2022/08/19 20:45:00;;;;;;;12.30;11.25;;;20.20;99.90;;;;;;5012319;28;20084;-84
2022/08/19 20:47:28;;;;;;;14.50;13.00;;;20.20;99.90;;;;;;5012413;28;20578;-85
2022/08/19 20:49:54;;;;;;;12.60;11.38;;;20.20;99.90;;;;;;4981039;28;20113;-84
2022/08/19 20:52:20;;;;;;;13.48;12.13;;;20.30;99.90;;;;;;4996199;28;20511;-84
2022/08/19 20:54:46;;;;;;;13.50;11.02;;;20.30;99.90;;;;;;4997744;28;20090;-84
2022/08/19 20:57:13;;;;;;;14.23;12.63;;;20.20;99.90;;;;;;4977089;28;20087;-84
2022/08/19 20:59:39;;;;;;;14.25;12.77;;;20.30;99.90;;;;;;5022611;28;20053;-84
2022/08/19 21:02:05;;;;;;;15.30;12.52;;;20.30;99.90;;;;;;5009003;28;20040;-84
2022/08/19 21:04:32;;;;;;;14.57;12.30;;;20.30;99.90;;;;;;5023911;28;20553;-84
2022/08/19 21:06:58;;;;;;;15.18;13.65;;;20.30;99.90;;;;;;4974446;28;20060;-84
2022/08/19 21:09:25;;;;;;;14.07;12.75;;;20.30;99.90;;;;;;4967637;28;20122;-84